Time;durP1;ratioP1;P1;durP2;ratioP2;P2;SDS_P1;SDS_P2;PMS_P1;PMS_P2;Temp;Humidity;BMP_temperature;BMP_pressure;BME280_temperature;BME280_humidity;BME280_pressure;Samples;Min_cycle;Max_cycle;Signal;HPM_P1;HPM_P2
2021/03/22 00:01:04;;;;;;;3.45;2.67;;;;;;;3.67;68.84;93997.44;5089444;28;20198;-66
2021/03/22 00:03:31;;;;;;;3.55;2.90;;;;;;;3.49;69.65;94008.81;5091215;28;20199;-65
2021/03/22 00:05:58;;;;;;;6.10;3.10;;;;;;;3.71;69.26;93983.00;5090987;28;20734;-66
2021/03/22 00:08:24;;;;;;;4.38;3.20;;;;;;;3.80;68.65;93994.56;5091248;28;20643;-66
2021/03/22 00:10:51;;;;;;;3.75;2.95;;;;;;;3.77;69.08;93980.28;5090866;28;20214;-67
2021/03/22 00:13:20;;;;;;;4.25;3.13;;;;;;;3.60;68.84;93960.56;5091015;28;20214;-64
2021/03/22 00:15:48;;;;;;;6.30;2.88;;;;;;;3.68;68.71;93975.72;5090835;28;20195;-74
2021/03/22 00:18:18;;;;;;;5.22;2.80;;;;;;;3.50;69.89;93979.31;5097878;28;20730;-70
2021/03/22 00:20:45;;;;;;;3.10;2.38;;;;;;;3.42;69.82;93976.31;5092459;28;20264;-71
2021/03/22 00:23:12;;;;;;;3.05;2.00;;;;;;;3.58;69.48;93975.53;5091220;28;20237;-69
2021/03/22 00:25:39;;;;;;;2.97;2.15;;;;;;;3.66;69.44;93962.22;5090630;28;20202;-66
2021/03/22 00:28:08;;;;;;;2.70;2.13;;;;;;;3.72;69.16;93966.47;5090935;28;20249;-64
2021/03/22 00:30:38;;;;;;;2.25;1.70;;;;;;;3.76;68.46;93967.56;5090665;28;20210;-65
2021/03/22 00:33:06;;;;;;;3.72;1.80;;;;;;;3.67;68.62;93963.78;5090661;28;20203;-70
2021/03/22 00:35:33;;;;;;;3.55;1.70;;;;;;;3.80;68.72;93963.47;5090466;28;20225;-69
2021/03/22 00:38:00;;;;;;;2.95;1.80;;;;;;;3.52;69.70;93963.56;5090770;28;20226;-71
2021/03/22 00:40:30;;;;;;;1.80;1.58;;;;;;;3.72;69.21;93963.88;5090741;28;20199;-69
2021/03/22 00:42:57;;;;;;;2.03;1.75;;;;;;;3.81;68.73;93967.63;5094927;28;20190;-64
2021/03/22 00:45:25;;;;;;;2.50;1.85;;;;;;;3.78;68.98;93968.09;5096849;28;20523;-70
2021/03/22 00:47:52;;;;;;;3.10;2.17;;;;;;;3.87;68.33;93969.25;5090756;28;20231;-68
2021/03/22 00:50:28;;;;;;;2.22;2.03;;;;;;;3.88;68.57;93976.03;5090432;28;20597;-68
2021/03/22 00:52:56;;;;;;;2.80;2.50;;;;;;;3.96;68.56;93962.66;5089118;28;20632;-64
2021/03/22 00:55:23;;;;;;;3.53;2.65;;;;;;;3.95;67.95;93961.09;5089987;28;20547;-63
2021/03/22 00:57:51;;;;;;;3.22;2.38;;;;;;;3.97;68.15;93948.69;5090433;28;20206;-64
2021/03/22 01:00:21;;;;;;;3.22;2.67;;;;;;;3.91;68.17;93952.22;5089126;28;20199;-68
2021/03/22 01:02:48;;;;;;;3.40;2.55;;;;;;;3.78;68.37;93944.78;5090373;28;20226;-71
2021/03/22 01:05:16;;;;;;;2.78;2.45;;;;;;;4.01;68.09;93942.03;5089712;28;20199;-64
2021/03/22 01:07:44;;;;;;;3.85;2.80;;;;;;;3.65;68.49;93934.75;5089029;28;20276;-65
2021/03/22 01:10:32;;;;;;;3.75;3.00;;;;;;;3.81;68.97;93936.56;5090298;28;20205;-68
2021/03/22 01:12:59;;;;;;;4.03;3.20;;;;;;;3.60;69.43;93942.44;5089452;28;20206;-69
2021/03/22 01:15:26;;;;;;;3.80;3.00;;;;;;;3.60;68.94;93900.97;5090058;28;20198;-69
2021/03/22 01:17:53;;;;;;;4.68;3.10;;;;;;;3.72;69.29;93909.47;5090351;28;20241;-64
2021/03/22 01:20:30;;;;;;;4.65;3.13;;;;;;;3.69;69.05;93915.09;5090176;28;20283;-70
2021/03/22 01:22:58;;;;;;;5.28;3.22;;;;;;;3.64;69.27;93913.25;5090144;28;20206;-65
2021/03/22 01:25:24;;;;;;;7.40;3.60;;;;;;;3.57;69.59;93906.66;5089951;28;20198;-69
2021/03/22 01:27:54;;;;;;;7.35;3.28;;;;;;;3.60;69.52;93900.97;5090509;28;20218;-63
2021/03/22 01:30:25;;;;;;;4.65;3.10;;;;;;;3.71;69.34;93893.13;5089793;28;20359;-70
2021/03/22 01:32:52;;;;;;;5.30;2.40;;;;;;;3.75;68.79;93901.22;5091896;28;20256;-63
2021/03/22 01:35:18;;;;;;;3.60;2.88;;;;;;;3.55;69.01;93893.16;5093875;28;20191;-69
2021/03/22 01:37:45;;;;;;;3.35;2.80;;;;;;;3.64;69.13;93907.28;5094341;28;20627;-70
2021/03/22 01:40:44;;;;;;;3.85;2.83;;;;;;;3.71;68.92;93897.53;5093768;28;20590;-69
2021/03/22 01:43:37;;;;;;;3.67;2.63;;;;;;;3.55;69.18;93898.31;5080183;28;20290;-65
2021/03/22 01:46:05;;;;;;;2.00;1.80;;;;;;;3.43;69.31;93905.41;5072280;28;20213;-68
2021/03/22 01:48:32;;;;;;;3.67;2.15;;;;;;;3.46;69.80;93889.38;5093749;28;20199;-67
2021/03/22 01:50:59;;;;;;;3.25;2.10;;;;;;;3.57;69.58;93875.56;5093323;28;20199;-64
2021/03/22 01:53:26;;;;;;;1.90;1.50;;;;;;;3.46;69.66;93884.19;5093774;28;20199;-62
2021/03/22 01:56:22;;;;;;;2.10;1.60;;;;;;;3.49;69.35;93878.53;5093459;28;20557;-65
2021/03/22 01:58:49;;;;;;;2.53;1.40;;;;;;;3.49;69.60;93883.72;5093769;28;20190;-71
2021/03/22 02:01:17;;;;;;;1.40;1.30;;;;;;;3.47;69.76;93880.59;5092981;28;20233;-63
2021/03/22 02:03:44;;;;;;;1.20;1.10;;;;;;;3.56;69.07;93861.06;5093515;28;20282;-65
2021/03/22 02:06:11;;;;;;;1.52;1.40;;;;;;;3.72;69.34;93857.66;5093432;28;20239;-69
2021/03/22 02:08:41;;;;;;;1.63;1.48;;;;;;;3.56;69.47;93856.66;5093620;28;20199;-67
2021/03/22 02:11:28;;;;;;;2.03;1.60;;;;;;;3.80;69.02;93867.59;5095023;28;20227;-66
2021/03/22 02:13:58;;;;;;;2.30;2.00;;;;;;;3.72;68.86;93868.03;5093576;28;20256;-64
2021/03/22 02:17:09;;;;;;;2.25;2.05;;;;;;;3.66;69.18;93859.41;5093049;28;20203;-71
2021/03/22 02:20:06;;;;;;;3.05;2.45;;;;;;;3.51;69.54;93861.75;5078495;28;20202;-64
2021/03/22 02:23:08;;;;;;;2.33;2.08;;;;;;;3.65;69.29;93870.00;5093153;28;20283;-65
2021/03/22 02:26:00;;;;;;;2.33;1.67;;;;;;;3.76;69.00;93864.72;5092842;28;20671;-68
2021/03/22 02:28:26;;;;;;;2.10;1.80;;;;;;;3.71;68.94;93856.06;5093247;28;20210;-70
2021/03/22 02:31:18;;;;;;;2.13;1.83;;;;;;;3.78;68.83;93857.47;5092469;28;20179;-63
2021/03/22 02:34:36;;;;;;;1.90;1.50;;;;;;;3.81;68.78;93871.78;5093055;28;20221;-67
2021/03/22 02:37:38;;;;;;;2.83;1.70;;;;;;;3.80;68.99;93857.25;5090452;28;20650;-68
2021/03/22 02:40:14;;;;;;;2.10;1.77;;;;;;;3.70;69.28;93844.16;5071109;28;20210;-66
2021/03/22 02:42:45;;;;;;;3.35;2.00;;;;;;;3.77;68.79;93849.97;5092389;28;20250;-66
2021/03/22 02:45:21;;;;;;;2.97;2.05;;;;;;;3.55;69.05;93847.31;5092457;28;20189;-67
2021/03/22 02:47:48;;;;;;;3.55;2.08;;;;;;;3.76;68.77;93843.22;5092995;28;20197;-67
2021/03/22 02:50:20;;;;;;;2.83;2.30;;;;;;;3.66;69.22;93845.66;5092663;28;20197;-64
2021/03/22 02:53:14;;;;;;;3.08;2.10;;;;;;;3.41;69.56;93840.13;5092572;28;20298;-68
2021/03/22 02:56:06;;;;;;;3.83;2.30;;;;;;;3.65;69.10;93824.13;5094036;28;20226;-70
2021/03/22 02:59:02;;;;;;;6.40;3.08;;;;;;;3.49;69.18;93831.94;5092829;28;20191;-66
2021/03/22 03:01:34;;;;;;;4.13;2.80;;;;;;;3.16;70.20;93819.03;5074787;28;20321;-66
2021/03/22 03:04:03;;;;;;;2.92;2.58;;;;;;;3.46;69.58;93824.66;5093544;28;20676;-70
2021/03/22 03:06:50;;;;;;;3.25;2.38;;;;;;;3.55;69.64;93825.81;5092352;28;20231;-68
2021/03/22 03:09:19;;;;;;;2.38;1.75;;;;;;;3.58;69.40;93817.56;5092841;28;20217;-63
2021/03/22 03:11:47;;;;;;;2.92;2.10;;;;;;;3.49;69.63;93819.00;5092255;28;20649;-64
2021/03/22 03:14:14;;;;;;;4.50;2.90;;;;;;;3.42;69.90;93814.00;5091252;28;20207;-64
2021/03/22 03:16:41;;;;;;;4.85;2.85;;;;;;;3.48;69.97;93814.84;5092353;28;20229;-64
2021/03/22 03:19:09;;;;;;;3.25;2.70;;;;;;;3.55;69.46;93805.09;5092818;28;20199;-68
2021/03/22 03:21:35;;;;;;;5.53;2.95;;;;;;;3.53;69.34;93801.97;5091982;28;20203;-61
2021/03/22 03:24:08;;;;;;;3.20;2.42;;;;;;;3.57;69.20;93797.88;5092065;28;20591;-63
2021/03/22 03:26:36;;;;;;;2.90;2.45;;;;;;;3.59;69.65;93801.00;5091802;28;20274;-68
2021/03/22 03:29:05;;;;;;;7.05;2.60;;;;;;;3.63;69.20;93802.88;5092099;28;20245;-65
2021/03/22 03:31:33;;;;;;;3.45;2.30;;;;;;;3.72;69.00;93792.91;5091586;28;20199;-65
2021/03/22 03:34:00;;;;;;;2.60;2.40;;;;;;;3.60;69.13;93790.41;5091921;28;20270;-61
2021/03/22 03:36:27;;;;;;;3.38;2.25;;;;;;;3.55;69.01;93798.13;5091063;28;20183;-67
2021/03/22 03:38:53;;;;;;;3.97;2.20;;;;;;;3.60;69.03;93818.91;5092116;28;20199;-65
2021/03/22 03:41:20;;;;;;;2.38;1.83;;;;;;;3.55;68.93;93797.31;5091377;28;20310;-68
2021/03/22 03:43:46;;;;;;;2.08;1.85;;;;;;;3.51;69.30;93801.41;5092687;28;20190;-64
2021/03/22 03:46:13;;;;;;;3.92;2.30;;;;;;;3.52;69.31;93795.22;5091419;28;20226;-68
2021/03/22 03:48:39;;;;;;;3.45;1.67;;;;;;;3.42;69.77;93808.03;5091707;28;20742;-69
2021/03/22 03:51:06;;;;;;;3.30;1.98;;;;;;;3.53;69.20;93801.97;5089993;28;20641;-65
2021/03/22 03:53:33;;;;;;;4.75;2.25;;;;;;;3.59;69.27;93793.25;5091514;28;20188;-70
2021/03/22 03:56:00;;;;;;;2.72;2.05;;;;;;;3.60;69.32;93789.63;5089847;28;20209;-67
2021/03/22 03:58:26;;;;;;;1.73;1.55;;;;;;;3.52;68.91;93795.22;5091626;28;20196;-62
2021/03/22 04:00:53;;;;;;;2.83;1.60;;;;;;;3.53;69.24;93792.38;5091012;28;20199;-68
2021/03/22 04:03:33;;;;;;;2.28;1.63;;;;;;;3.65;69.00;93784.53;5091387;28;20194;-68
2021/03/22 04:06:06;;;;;;;2.13;1.60;;;;;;;3.44;69.35;93793.03;5098012;28;20202;-65
2021/03/22 04:08:35;;;;;;;1.88;1.70;;;;;;;3.56;69.12;93786.72;5093155;28;20242;-72
2021/03/22 04:11:03;;;;;;;2.45;1.85;;;;;;;3.69;68.75;93790.78;5090738;28;20195;-67
2021/03/22 04:13:32;;;;;;;3.45;1.90;;;;;;;3.51;68.80;93783.28;5090721;28;20191;-68
2021/03/22 04:15:59;;;;;;;3.42;2.40;;;;;;;3.63;69.12;93781.41;5090693;28;20198;-66
2021/03/22 04:18:35;;;;;;;3.03;2.00;;;;;;;3.59;68.64;93767.34;5090580;28;20210;-66
2021/03/22 04:21:04;;;;;;;2.53;1.83;;;;;;;3.80;68.44;93779.53;5095359;28;20663;-65
2021/03/22 04:23:31;;;;;;;3.22;1.70;;;;;;;3.78;68.33;93773.78;5098673;28;20280;-71
2021/03/22 04:25:58;;;;;;;2.90;1.80;;;;;;;3.85;68.07;93771.81;5098458;28;20195;-66
2021/03/22 04:28:24;;;;;;;2.72;1.42;;;;;;;3.90;67.66;93779.66;5098018;28;20205;-67
2021/03/22 04:30:51;;;;;;;2.67;1.35;;;;;;;3.83;67.81;93776.47;5098616;28;20203;-68
2021/03/22 04:33:18;;;;;;;1.85;1.40;;;;;;;3.76;68.00;93768.84;5102163;28;20198;-71
2021/03/22 04:35:44;;;;;;;2.90;1.48;;;;;;;3.77;68.29;93767.06;5101741;28;20191;-66
2021/03/22 04:38:11;;;;;;;2.28;1.58;;;;;;;3.89;68.08;93765.91;5097188;28;20214;-71
2021/03/22 04:40:37;;;;;;;3.25;1.88;;;;;;;3.72;68.64;93769.59;5089682;28;20195;-65
2021/03/22 04:43:03;;;;;;;1.75;1.63;;;;;;;3.63;68.62;93773.63;5099369;28;20255;-64
2021/03/22 04:45:30;;;;;;;5.53;2.47;;;;;;;3.72;69.00;93785.13;5108385;28;20199;-67
2021/03/22 04:47:58;;;;;;;4.50;3.10;;;;;;;3.66;68.89;93786.09;5091161;28;20290;-64
2021/03/22 04:50:27;;;;;;;5.75;3.55;;;;;;;3.48;68.65;93752.69;5090668;28;20266;-67
2021/03/22 04:52:54;;;;;;;6.05;3.45;;;;;;;3.68;68.76;93784.03;5092900;28;20203;-65
2021/03/22 04:55:22;;;;;;;8.38;3.20;;;;;;;3.65;68.82;93769.00;5110456;28;20667;-69
2021/03/22 04:57:49;;;;;;;6.82;3.75;;;;;;;3.79;68.36;93785.72;5110995;28;20664;-65
2021/03/22 05:00:28;;;;;;;5.85;4.13;;;;;;;3.79;68.59;93780.56;5109168;28;20209;-63
2021/03/22 05:02:55;;;;;;;7.05;4.55;;;;;;;3.52;69.64;93779.69;5090460;28;20229;-64
2021/03/22 05:05:24;;;;;;;8.50;4.32;;;;;;;3.76;68.92;93775.88;5095468;28;20320;-67
2021/03/22 05:07:52;;;;;;;7.85;4.40;;;;;;;3.57;68.89;93782.34;5110525;28;20283;-64
2021/03/22 05:10:26;;;;;;;5.70;4.50;;;;;;;3.57;69.05;93782.34;5092486;28;20194;-64
2021/03/22 05:12:53;;;;;;;6.50;4.10;;;;;;;3.62;68.76;93790.16;5096608;28;20199;-66
2021/03/22 05:15:20;;;;;;;6.25;4.38;;;;;;;3.73;69.05;93781.50;5102596;28;20306;-67
2021/03/22 05:17:46;;;;;;;6.63;4.45;;;;;;;3.63;68.58;93789.16;5104500;28;20202;-63
2021/03/22 05:20:23;;;;;;;6.03;4.20;;;;;;;3.71;68.55;93788.72;5110732;28;20250;-64
2021/03/22 05:22:50;;;;;;;10.85;5.38;;;;;;;3.43;69.66;93792.25;5110511;28;20221;-69
2021/03/22 05:25:18;;;;;;;6.55;4.30;;;;;;;3.59;69.38;93790.66;5110206;28;20197;-64
2021/03/22 05:27:45;;;;;;;10.50;4.82;;;;;;;3.75;68.51;93797.59;5109312;28;20251;-66
2021/03/22 05:30:14;;;;;;;10.23;4.82;;;;;;;3.69;68.71;93799.34;5110022;28;20194;-66
2021/03/22 05:32:41;;;;;;;8.13;4.65;;;;;;;3.68;68.84;93800.38;5110453;28;20198;-66
2021/03/22 05:35:16;;;;;;;9.70;5.35;;;;;;;3.73;68.81;93802.22;5110269;28;20190;-63
2021/03/22 05:37:43;;;;;;;12.43;6.68;;;;;;;3.73;68.44;93802.22;5110536;28;20193;-64
2021/03/22 05:40:19;;;;;;;14.32;7.07;;;;;;;3.71;68.74;93799.09;5110144;28;20202;-66
2021/03/22 05:43:25;;;;;;;14.63;7.60;;;;;;;3.51;69.13;93802.19;5110274;28;20230;-65
2021/03/22 05:46:12;;;;;;;11.35;6.40;;;;;;;3.59;69.28;93806.97;5102308;28;20680;-63
2021/03/22 05:48:51;;;;;;;9.60;6.13;;;;;;;3.54;69.44;93803.53;5110362;28;20199;-68
2021/03/22 05:51:51;;;;;;;12.50;5.65;;;;;;;3.60;68.96;93802.56;5109717;28;20226;-63
2021/03/22 05:54:51;;;;;;;11.93;6.93;;;;;;;3.49;69.20;93806.03;5110366;28;20178;-68
2021/03/22 05:58:05;;;;;;;9.25;6.45;;;;;;;3.71;69.07;93815.44;5112923;28;20251;-66
2021/03/22 06:00:43;;;;;;;10.23;6.82;;;;;;;3.79;68.80;93809.06;5081787;28;20677;-65
2021/03/22 06:03:32;;;;;;;10.93;6.75;;;;;;;3.89;68.46;93816.94;5116527;28;20227;-63
2021/03/22 06:06:19;;;;;;;9.48;6.45;;;;;;;4.14;68.17;93819.88;5110061;28;20706;-64
2021/03/22 06:08:54;;;;;;;8.40;5.18;;;;;;;4.27;67.36;93814.28;5110075;28;20187;-67
2021/03/22 06:11:20;;;;;;;6.90;3.70;;;;;;;4.35;66.98;93816.47;5109602;28;20267;-64
2021/03/22 06:13:54;;;;;;;6.70;3.25;;;;;;;4.40;66.74;93808.72;5110398;28;20194;-63
2021/03/22 06:16:42;;;;;;;3.65;2.67;;;;;;;4.45;66.51;93815.78;5109326;28;20234;-64
2021/03/22 06:19:14;;;;;;;4.38;2.22;;;;;;;4.51;66.43;93818.19;5112190;28;20338;-64
2021/03/22 06:21:45;;;;;;;3.95;2.30;;;;;;;4.62;65.67;93806.09;5113600;28;20318;-65
2021/03/22 06:24:17;;;;;;;4.00;2.28;;;;;;;4.61;66.00;93807.91;5114001;28;20193;-64
2021/03/22 06:26:48;;;;;;;4.03;2.20;;;;;;;4.54;65.67;93820.31;5113507;28;20194;-66
2021/03/22 06:29:33;;;;;;;3.05;2.20;;;;;;;4.42;65.95;93817.06;5114000;28;20263;-67
2021/03/22 06:32:17;;;;;;;4.25;2.70;;;;;;;4.35;66.61;93816.47;5113380;28;20206;-63
2021/03/22 06:35:05;;;;;;;4.25;2.65;;;;;;;4.32;66.31;93816.97;5113500;28;20214;-66
2021/03/22 06:37:35;;;;;;;6.18;2.60;;;;;;;4.38;65.77;93815.97;5113694;27;20187;-65
2021/03/22 06:40:08;;;;;;;5.47;2.70;;;;;;;4.41;66.13;93820.69;5112744;28;20190;-65
2021/03/22 06:42:35;;;;;;;4.22;2.95;;;;;;;4.48;66.00;93818.69;5113017;28;20228;-66
2021/03/22 06:45:05;;;;;;;5.20;3.03;;;;;;;4.65;65.75;93816.75;5112782;28;20196;-65
2021/03/22 06:47:33;;;;;;;3.30;2.50;;;;;;;4.57;65.84;93813.81;5113072;28;20202;-65
2021/03/22 06:50:29;;;;;;;7.28;2.95;;;;;;;4.70;65.44;93819.41;5112864;28;20222;-65
2021/03/22 06:52:56;;;;;;;5.63;3.10;;;;;;;4.74;65.53;93812.72;5111531;28;20285;-66
2021/03/22 06:55:24;;;;;;;4.13;2.95;;;;;;;4.88;65.15;93816.47;5112546;28;20213;-61
2021/03/22 06:57:51;;;;;;;7.05;4.00;;;;;;;4.95;65.04;93805.88;5112847;28;20191;-64
2021/03/22 07:00:21;;;;;;;6.47;4.50;;;;;;;5.12;64.59;93809.16;5112376;27;20230;-64
2021/03/22 07:02:49;;;;;;;8.73;5.35;;;;;;;5.10;64.41;93813.81;5112771;28;20233;-64
2021/03/22 07:05:38;;;;;;;5.47;3.60;;;;;;;5.08;64.29;93814.06;5112686;28;20225;-69
2021/03/22 07:08:38;;;;;;;9.68;6.80;;;;;;;4.70;65.57;93819.41;5112627;28;20295;-65
2021/03/22 07:11:18;;;;;;;47.08;27.35;;;;;;;5.00;65.28;93821.50;5110163;28;20395;-65
2021/03/22 07:14:03;;;;;;;69.13;38.35;;;;;;;4.91;64.92;93815.19;5112786;28;20578;-68
2021/03/22 07:16:32;;;;;;;48.00;27.13;;;;;;;4.96;64.97;93813.41;5112035;27;20189;-63
2021/03/22 07:19:19;;;;;;;29.13;16.73;;;;;;;4.74;64.59;93810.13;5112553;28;20681;-66
2021/03/22 07:21:52;;;;;;;16.23;11.25;;;;;;;4.53;64.91;93805.75;5111758;28;20222;-65
2021/03/22 07:24:47;;;;;;;12.52;8.77;;;;;;;4.43;65.49;93817.84;5113911;28;20205;-63
2021/03/22 07:27:28;;;;;;;9.77;6.80;;;;;;;4.05;65.81;93821.31;5112329;28;20226;-63
2021/03/22 07:30:13;;;;;;;7.88;5.63;;;;;;;4.22;65.54;93821.22;5112064;28;20182;-66
2021/03/22 07:33:16;;;;;;;7.43;5.03;;;;;;;4.19;65.42;93825.09;5112153;28;20279;-63
2021/03/22 07:36:06;;;;;;;9.43;5.50;;;;;;;4.48;65.39;93830.84;5111027;28;20251;-67
2021/03/22 07:39:17;;;;;;;8.55;5.97;;;;;;;4.52;65.39;93843.09;5108438;28;20198;-67
2021/03/22 07:41:51;;;;;;;9.43;5.38;;;;;;;4.60;64.91;93847.84;5109740;28;20254;-66
2021/03/22 07:44:29;;;;;;;6.32;4.57;;;;;;;4.44;69.82;93853.91;5110839;28;20283;-68
2021/03/22 07:47:11;;;;;;;5.82;4.32;;;;;;;4.54;67.46;93851.44;5109493;28;20681;-69
2021/03/22 07:49:56;;;;;;;4.53;2.90;;;;;;;4.64;65.84;93856.72;5107984;28;20668;-73
2021/03/22 07:52:33;;;;;;;5.03;3.50;;;;;;;4.45;66.27;93837.34;5109968;28;20186;-69
2021/03/22 07:55:27;;;;;;;7.20;5.35;;;;;;;4.57;65.14;93845.75;5110205;28;20586;-71
2021/03/22 07:58:06;;;;;;;59.38;41.08;;;;;;;4.53;65.10;93849.84;5108796;28;20294;-71
2021/03/22 08:00:38;;;;;;;8.82;6.45;;;;;;;4.50;64.49;93850.34;5110012;28;20201;-72
2021/03/22 08:03:32;;;;;;;21.30;14.93;;;;;;;4.51;65.49;93851.91;5110037;28;20271;-67
2021/03/22 08:06:20;;;;;;;3.97;2.80;;;;;;;4.60;64.27;93852.28;5107376;28;20190;-69
2021/03/22 08:08:59;;;;;;;4.18;2.80;;;;;;;4.76;64.05;93844.38;5108647;28;20218;-65
2021/03/22 08:11:49;;;;;;;5.97;3.88;;;;;;;4.22;64.06;93850.53;5108686;28;20222;-70
2021/03/22 08:14:31;;;;;;;7.95;4.55;;;;;;;4.49;64.50;93853.94;5110088;28;20230;-71
2021/03/22 08:17:13;;;;;;;9.90;6.55;;;;;;;4.83;64.10;93844.19;5112257;28;20247;-68
2021/03/22 08:19:45;;;;;;;7.78;5.05;;;;;;;4.70;64.00;93840.19;5111991;28;20255;-63
2021/03/22 08:22:22;;;;;;;6.15;4.43;;;;;;;4.71;63.82;93840.94;5110490;28;20268;-68
2021/03/22 08:25:11;;;;;;;7.75;5.13;;;;;;;4.47;63.46;93819.69;5111566;28;20575;-61
2021/03/22 08:27:46;;;;;;;6.32;4.75;;;;;;;4.33;65.43;93830.69;5111654;28;20206;-64
2021/03/22 08:30:30;;;;;;;9.52;6.10;;;;;;;4.34;64.88;93830.47;5110966;28;20649;-66
2021/03/22 08:33:08;;;;;;;11.73;6.80;;;;;;;4.62;65.26;93832.03;5114741;28;20296;-66
2021/03/22 08:35:54;;;;;;;6.78;4.70;;;;;;;4.78;63.83;93831.19;5109805;28;20217;-62
2021/03/22 08:38:34;;;;;;;205.68;101.45;;;;;;;4.53;66.16;93829.09;5103004;28;20926;-70
2021/03/22 08:41:01;;;;;;;34.67;23.88;;;;;;;4.82;65.10;93835.63;5106862;28;20202;-71
2021/03/22 08:43:45;;;;;;;9.50;6.38;;;;;;;5.08;64.19;93841.81;5109067;28;20218;-71
2021/03/22 08:46:29;;;;;;;6.00;3.67;;;;;;;5.09;63.69;93826.00;5105425;28;20206;-67
2021/03/22 08:48:58;;;;;;;14.73;8.05;;;;;;;5.02;64.66;93827.22;5110629;28;20233;-62
2021/03/22 08:51:25;;;;;;;5.35;3.13;;;;;;;5.33;63.65;93838.66;5110187;28;20183;-67
2021/03/22 08:53:53;;;;;;;4.32;3.10;;;;;;;5.60;63.39;93834.19;5111031;28;20197;-65
2021/03/22 08:56:37;;;;;;;4.57;3.10;;;;;;;5.61;62.06;93833.13;5091733;28;20199;-66
2021/03/22 08:59:17;;;;;;;4.88;2.83;;;;;;;5.41;63.38;93835.59;5089999;28;20571;-66
2021/03/22 09:01:43;;;;;;;5.15;3.30;;;;;;;5.44;63.73;93833.28;5108445;28;20599;-69
2021/03/22 09:04:19;;;;;;;5.88;3.70;;;;;;;5.53;62.55;93831.78;5110403;28;20593;-68
2021/03/22 09:06:59;;;;;;;4.57;3.20;;;;;;;5.48;63.03;93826.56;5109838;28;20217;-66
2021/03/22 09:09:29;;;;;;;6.65;4.22;;;;;;;5.67;62.81;93826.94;5108597;28;20301;-66
2021/03/22 09:11:57;;;;;;;37.20;27.20;;;;;;;5.62;63.22;93834.72;5110402;28;20195;-66
2021/03/22 09:14:36;;;;;;;7.38;5.18;;;;;;;5.52;63.42;93827.63;5097846;28;20201;-71
2021/03/22 09:17:21;;;;;;;7.82;4.47;;;;;;;5.22;63.91;93824.03;5090177;28;20206;-64
2021/03/22 09:20:20;;;;;;;5.05;3.33;;;;;;;5.00;63.45;93835.25;5089352;28;20278;-75
2021/03/22 09:22:52;;;;;;;5.05;3.53;;;;;;;4.43;64.23;93839.38;5089639;28;20269;-66
2021/03/22 09:26:01;;;;;;;5.15;3.75;;;;;;;5.24;62.53;93840.16;5089947;28;20226;-71
2021/03/22 09:28:28;;;;;;;7.32;3.78;;;;;;;4.70;62.44;93840.19;5084405;28;20286;-62
2021/03/22 09:31:12;;;;;;;6.57;3.33;;;;;;;5.05;61.52;93839.72;5089350;28;20183;-63
2021/03/22 09:33:48;;;;;;;5.22;3.25;;;;;;;5.37;60.73;93837.09;5089652;28;20176;-71
2021/03/22 09:36:36;;;;;;;4.32;2.70;;;;;;;5.39;60.66;93832.44;5089142;28;20651;-69
2021/03/22 09:39:27;;;;;;;5.53;3.38;;;;;;;5.32;61.05;93837.06;5090312;28;20685;-68
2021/03/22 09:42:02;;;;;;;5.93;4.07;;;;;;;5.33;60.63;93823.06;5088463;28;20296;-68
2021/03/22 09:44:35;;;;;;;6.95;5.00;;;;;;;5.36;61.25;93827.75;5089508;28;20195;-64
2021/03/22 09:47:14;;;;;;;5.95;4.43;;;;;;;5.59;60.12;93817.78;5089872;28;20206;-62
2021/03/22 09:50:03;;;;;;;6.03;4.45;;;;;;;5.65;59.04;93806.41;5087922;28;20207;-68
2021/03/22 09:52:51;;;;;;;7.35;3.97;;;;;;;5.71;59.64;93809.81;5087648;28;20175;-67
2021/03/22 09:55:26;;;;;;;3.17;2.45;;;;;;;5.96;57.23;93807.38;5091054;28;20198;-64
2021/03/22 09:57:58;;;;;;;5.80;3.78;;;;;;;6.11;58.65;93810.06;5091484;28;20236;-64
2021/03/22 10:00:34;;;;;;;6.97;5.47;;;;;;;6.45;59.42;93797.41;5090888;28;20223;-70
2021/03/22 10:03:29;;;;;;;8.93;6.57;;;;;;;6.74;59.46;93788.91;5092886;28;20330;-64
2021/03/22 10:05:59;;;;;;;8.35;6.50;;;;;;;6.78;58.41;93794.38;5092867;28;20197;-70
2021/03/22 10:08:31;;;;;;;10.27;6.22;;;;;;;7.01;58.65;93802.47;5093428;28;20199;-70
2021/03/22 10:11:19;;;;;;;7.88;5.95;;;;;;;6.97;58.80;93798.81;5093027;28;20256;-69
2021/03/22 10:13:48;;;;;;;8.23;5.15;;;;;;;6.92;57.49;93796.22;5092743;28;20526;-69
2021/03/22 10:16:17;;;;;;;5.93;4.63;;;;;;;7.12;57.01;93800.63;5093242;28;20213;-66
2021/03/22 10:19:03;;;;;;;7.53;3.65;;;;;;;6.69;56.79;93801.13;5093804;28;20199;-66
2021/03/22 10:21:35;;;;;;;4.13;3.25;;;;;;;6.78;57.65;93802.19;5093277;28;20202;-68
2021/03/22 10:24:12;;;;;;;7.13;5.05;;;;;;;6.53;57.42;93799.53;5093181;28;20194;-67
2021/03/22 10:26:47;;;;;;;5.75;4.55;;;;;;;6.47;55.38;93808.34;5093033;28;20288;-66
2021/03/22 10:29:20;;;;;;;6.40;5.57;;;;;;;6.20;57.39;93808.53;5093027;28;20199;-65
2021/03/22 10:31:59;;;;;;;8.93;5.60;;;;;;;6.22;58.25;93811.66;5092764;28;20289;-65
2021/03/22 10:34:38;;;;;;;5.80;4.93;;;;;;;6.29;58.31;93817.41;5092954;28;20272;-65
2021/03/22 10:37:19;;;;;;;6.95;5.53;;;;;;;6.29;58.04;93816.63;5093477;28;20244;-63
2021/03/22 10:39:50;;;;;;;7.90;4.72;;;;;;;5.20;58.88;93824.25;5092636;28;20194;-69
2021/03/22 10:42:25;;;;;;;9.48;5.10;;;;;;;5.18;59.50;93830.75;5093385;28;20221;-65
2021/03/22 10:44:54;;;;;;;6.50;4.18;;;;;;;5.54;59.64;93819.56;5091982;28;20223;-62
2021/03/22 10:47:24;;;;;;;6.03;4.63;;;;;;;5.44;59.37;93819.53;5093043;28;20199;-65
2021/03/22 10:49:51;;;;;;;7.68;4.40;;;;;;;5.42;58.90;93824.19;5092410;28;20914;-67
2021/03/22 10:52:25;;;;;;;4.75;3.40;;;;;;;5.50;59.05;93823.69;5093342;28;20695;-64
2021/03/22 10:54:52;;;;;;;2.97;2.65;;;;;;;4.94;59.15;93825.09;5092441;28;20228;-65
2021/03/22 10:57:35;;;;;;;4.13;2.80;;;;;;;4.79;59.71;93823.13;5092936;28;20199;-66
2021/03/22 11:00:28;;;;;;;4.00;2.55;;;;;;;5.08;59.25;93826.25;5091773;28;20264;-65
2021/03/22 11:02:57;;;;;;;2.63;2.20;;;;;;;5.00;59.81;93824.88;5091600;28;20318;-66
2021/03/22 11:05:37;;;;;;;4.63;2.25;;;;;;;5.19;60.14;93830.50;5092020;28;20222;-67
2021/03/22 11:08:26;;;;;;;2.50;2.03;;;;;;;5.31;58.79;93830.34;5092472;28;20614;-73
2021/03/22 11:11:12;;;;;;;4.65;2.40;;;;;;;5.46;58.58;93825.22;5092486;28;20211;-68
2021/03/22 11:13:42;;;;;;;5.82;2.60;;;;;;;5.44;59.80;93824.72;5092526;28;20211;-69
2021/03/22 11:16:26;;;;;;;6.95;4.18;;;;;;;5.58;60.51;93825.84;5092419;28;20554;-64
2021/03/22 11:18:55;;;;;;;6.28;3.05;;;;;;;5.68;59.32;93826.69;5092641;28;20241;-67
2021/03/22 11:21:24;;;;;;;4.00;2.35;;;;;;;5.21;58.90;93830.25;5092294;28;20202;-67
2021/03/22 11:23:54;;;;;;;4.53;1.67;;;;;;;5.00;58.25;93832.66;5092181;28;20287;-64
2021/03/22 11:26:25;;;;;;;2.83;1.90;;;;;;;5.15;58.03;93832.81;5091952;28;20194;-66
2021/03/22 11:29:15;;;;;;;3.70;2.17;;;;;;;5.25;57.66;93821.72;5090562;28;20199;-65
2021/03/22 11:31:45;;;;;;;2.95;1.80;;;;;;;4.91;59.12;93823.75;5088484;28;20203;-65
2021/03/22 11:34:23;;;;;;;5.20;2.20;;;;;;;5.15;58.67;93826.81;5092077;28;20203;-64
2021/03/22 11:37:12;;;;;;;3.40;1.90;;;;;;;5.38;57.12;93825.69;5093147;28;20252;-66
2021/03/22 11:39:40;;;;;;;4.35;2.53;;;;;;;5.32;56.55;93813.69;5091825;28;20775;-67
2021/03/22 11:42:28;;;;;;;3.83;2.35;;;;;;;5.62;57.55;93826.91;5091711;28;20208;-66
2021/03/22 11:44:55;;;;;;;5.50;3.08;;;;;;;6.00;56.69;93818.84;5091410;28;20628;-65
2021/03/22 11:47:33;;;;;;;14.55;7.50;;;;;;;6.07;57.11;93824.59;5091913;28;20195;-68
2021/03/22 11:50:00;;;;;;;5.10;3.20;;;;;;;6.03;55.42;93824.31;5091151;28;20194;-66
2021/03/22 11:52:29;;;;;;;4.65;2.60;;;;;;;6.22;54.37;93822.06;5093097;28;20196;-69
2021/03/22 11:54:57;;;;;;;7.90;3.78;;;;;;;6.20;54.58;93821.53;5098404;28;20187;-66
2021/03/22 11:57:32;;;;;;;3.70;2.80;;;;;;;6.16;54.32;93817.88;5101312;28;20674;-67
2021/03/22 12:00:13;;;;;;;4.78;2.50;;;;;;;5.95;58.16;93826.59;5105400;28;20197;-67
2021/03/22 12:02:58;;;;;;;3.35;2.20;;;;;;;5.91;57.55;93825.56;5108505;28;20217;-68
2021/03/22 12:05:39;;;;;;;3.97;2.55;;;;;;;5.84;58.51;93837.97;5107098;28;20190;-74
2021/03/22 12:08:32;;;;;;;4.15;2.22;;;;;;;5.93;59.02;93844.28;5107046;28;20218;-66
2021/03/22 12:11:05;;;;;;;4.25;2.50;;;;;;;5.70;58.91;93837.63;5109321;28;20217;-71
2021/03/22 12:13:31;;;;;;;3.00;1.85;;;;;;;5.72;56.88;93842.56;5097584;28;20200;-68
2021/03/22 12:15:59;;;;;;;3.20;1.60;;;;;;;5.46;57.52;93843.41;5093473;28;20198;-67
2021/03/22 12:18:31;;;;;;;63.95;45.85;;;;;;;5.47;61.58;93838.00;5102975;28;20199;-68
2021/03/22 12:20:59;;;;;;;49.75;42.75;;;;;;;5.23;61.74;93848.94;5096980;28;20196;-66